Time;durP1;ratioP1;P1;durP2;ratioP2;P2;SDS_P1;SDS_P2;PMS_P1;PMS_P2;Temp;Humidity;BMP_temperature;BMP_pressure;BME280_temperature;BME280_humidity;BME280_pressure;Samples;Min_cycle;Max_cycle;Signal;HPM_P1;HPM_P2
2023/08/26 00:00:45;;;;;;;;;;;;;;;16.85;100.00;100912.44;4985552;28;19921;-72
2023/08/26 00:03:10;;;;;;;;;;;;;;;16.81;100.00;100909.22;4984026;28;19929;-72
2023/08/26 00:05:35;;;;;;;;;;;;;;;16.86;100.00;100911.44;4985986;28;19932;-72
2023/08/26 00:08:01;;;;;;;;;;;;;;;16.88;100.00;100918.41;4982698;28;19926;-72
2023/08/26 00:10:26;;;;;;;;;;;;;;;16.87;100.00;100907.72;4969192;28;19922;-71
2023/08/26 00:12:51;;;;;;;;;;;;;;;16.84;100.00;100911.59;4982443;28;20130;-72
2023/08/26 00:15:16;;;;;;;;;;;;;;;16.93;100.00;100897.09;4989293;28;21974;-72
2023/08/26 00:17:42;;;;;;;;;;;;;;;16.97;100.00;100889.53;4988755;28;19933;-72
2023/08/26 00:20:09;;;;;;;;;;;;;;;16.93;100.00;100891.69;4990947;28;19979;-72
2023/08/26 00:22:34;;;;;;;;;;;;;;;16.91;100.00;100896.41;4991725;28;19983;-72
2023/08/26 00:25:00;;;;;;;;;;;;;;;16.75;100.00;100907.13;4987147;28;19926;-72
2023/08/26 00:27:25;;;;;;;;;;;;;;;16.56;100.00;100909.03;4974515;28;19921;-72
2023/08/26 00:29:50;;;;;;;;;;;;;;;16.58;100.00;100911.56;4992337;28;20351;-72
2023/08/26 00:32:15;;;;;;;;;;;;;;;16.55;100.00;100911.91;4975748;28;19921;-72
2023/08/26 00:34:41;;;;;;;;;;;;;;;16.62;100.00;100921.97;4994827;28;20552;-72
2023/08/26 00:37:06;;;;;;;;;;;;;;;16.64;100.00;100914.53;4988120;28;20244;-72
2023/08/26 00:39:32;;;;;;;;;;;;;;;16.73;100.00;100917.28;4997399;28;20054;-72
2023/08/26 00:41:57;;;;;;;;;;;;;;;16.49;100.00;100916.06;4979174;28;21005;-71
2023/08/26 00:44:22;;;;;;;;;;;;;;;16.55;100.00;100917.34;4995259;28;20375;-71
2023/08/26 00:46:47;;;;;;;;;;;;;;;16.46;100.00;100921.81;4998511;28;19921;-69
2023/08/26 00:49:13;;;;;;;;;;;;;;;16.57;100.00;100918.88;4985964;28;20034;-69
2023/08/26 00:51:38;;;;;;;;;;;;;;;16.51;100.00;100919.47;4989547;28;19936;-71
2023/08/26 00:54:06;;;;;;;;;;;;;;;16.43;100.00;100919.41;4989411;28;20339;-70
2023/08/26 00:56:31;;;;;;;;;;;;;;;16.24;100.00;100909.59;4990234;28;19932;-71
2023/08/26 00:58:57;;;;;;;;;;;;;;;16.29;100.00;100916.25;4988088;28;19917;-71
2023/08/26 01:01:22;;;;;;;;;;;;;;;16.24;100.00;100913.16;4986260;28;19925;-70
2023/08/26 01:03:47;;;;;;;;;;;;;;;16.02;100.00;100923.44;4990572;28;19929;-71
2023/08/26 01:06:12;;;;;;;;;;;;;;;16.01;100.00;100916.31;4984291;28;19928;-71
2023/08/26 01:08:37;;;;;;;;;;;;;;;15.95;100.00;100919.63;4991767;28;19936;-71
2023/08/26 01:11:06;;;;;;;;;;;;;;;15.95;100.00;100918.81;4994580;28;19924;-71
2023/08/26 01:13:51;;;;;;;;;;;;;;;15.85;100.00;100918.84;4993303;28;19925;-70
2023/08/26 01:16:16;;;;;;;;;;;;;;;15.80;100.00;100911.16;4994592;28;19929;-72
2023/08/26 01:18:41;;;;;;;;;;;;;;;15.69;100.00;100903.25;4978256;28;20648;-72
2023/08/26 01:21:07;;;;;;;;;;;;;;;15.90;100.00;100916.53;4987668;28;20539;-71
2023/08/26 01:23:39;;;;;;;;;;;;;;;15.76;100.00;100907.03;4984407;28;20303;-70
2023/08/26 01:26:04;;;;;;;;;;;;;;;15.56;100.00;100909.88;4988759;28;19967;-72
2023/08/26 01:28:30;;;;;;;;;;;;;;;15.38;100.00;100890.03;4970741;28;19922;-71
2023/08/26 01:30:55;;;;;;;;;;;;;;;15.39;100.00;100907.97;4984921;28;19979;-70
2023/08/26 01:33:21;;;;;;;;;;;;;;;15.35;100.00;100907.44;4989389;28;19927;-70
2023/08/26 01:35:47;;;;;;;;;;;;;;;15.40;100.00;100915.91;4988788;28;19921;-71
2023/08/26 01:38:12;;;;;;;;;;;;;;;15.41;100.00;100919.50;4970875;28;19971;-71
2023/08/26 01:40:37;;;;;;;;;;;;;;;15.30;100.00;100915.13;4972352;28;19948;-69
2023/08/26 01:43:03;;;;;;;;;;;;;;;15.19;100.00;100923.41;5008494;28;19925;-70
2023/08/26 01:45:28;;;;;;;;;;;;;;;15.35;100.00;100918.25;4993098;28;20254;-71
2023/08/26 01:47:53;;;;;;;;;;;;;;;15.18;100.00;100925.28;4974385;28;21760;-69
2023/08/26 01:50:18;;;;;;;;;;;;;;;15.25;100.00;100926.38;5007240;28;19928;-71
2023/08/26 01:52:44;;;;;;;;;;;;;;;15.18;100.00;100916.31;4992902;28;20011;-72
2023/08/26 01:55:09;;;;;;;;;;;;;;;15.23;100.00;100916.72;4990489;28;19931;-70
2023/08/26 01:57:34;;;;;;;;;;;;;;;15.08;100.00;100928.03;5004441;28;19956;-71
2023/08/26 01:59:59;;;;;;;;;;;;;;;15.09;100.00;100926.16;4977552;28;20008;-73
2023/08/26 02:02:25;;;;;;;;;;;;;;;14.98;100.00;100929.88;5007129;28;19931;-73
2023/08/26 02:04:50;;;;;;;;;;;;;;;14.99;100.00;100920.78;5007104;28;20018;-72
2023/08/26 02:07:15;;;;;;;;;;;;;;;14.94;100.00;100925.78;5009283;28;19946;-71
2023/08/26 02:09:40;;;;;;;;;;;;;;;14.91;100.00;100923.34;4990393;28;19921;-70
2023/08/26 02:12:06;;;;;;;;;;;;;;;14.79;100.00;100914.56;5004955;28;19925;-72
2023/08/26 02:14:31;;;;;;;;;;;;;;;14.57;100.00;100923.81;4989897;28;19971;-71
2023/08/26 02:16:56;;;;;;;;;;;;;;;14.43;100.00;100922.41;4991436;28;19921;-71
2023/08/26 02:19:21;;;;;;;;;;;;;;;14.38;100.00;100930.94;4995962;28;19924;-71
2023/08/26 02:21:47;;;;;;;;;;;;;;;14.20;100.00;100928.94;4993394;28;19924;-71
2023/08/26 02:24:12;;;;;;;;;;;;;;;14.24;100.00;100918.69;4997757;28;19917;-70
2023/08/26 02:26:37;;;;;;;;;;;;;;;14.01;100.00;100926.22;5013005;28;19928;-69
2023/08/26 02:29:03;;;;;;;;;;;;;;;14.04;100.00;100925.91;4997525;28;19959;-70
2023/08/26 02:31:28;;;;;;;;;;;;;;;13.90;100.00;100919.94;5015336;28;19921;-71
2023/08/26 02:33:53;;;;;;;;;;;;;;;13.94;100.00;100917.81;5018814;28;19928;-71
2023/08/26 02:36:18;;;;;;;;;;;;;;;13.82;100.00;100918.94;5014266;28;20204;-70
2023/08/26 02:38:44;;;;;;;;;;;;;;;13.64;100.00;100920.47;4997311;28;19925;-69
2023/08/26 02:41:09;;;;;;;;;;;;;;;13.50;100.00;100896.59;4997591;28;19927;-70
2023/08/26 02:43:34;;;;;;;;;;;;;;;13.60;100.00;100918.19;4995820;28;20403;-71
2023/08/26 02:45:59;;;;;;;;;;;;;;;13.52;100.00;100918.84;5015358;28;20422;-71
2023/08/26 02:48:25;;;;;;;;;;;;;;;13.44;100.00;100914.16;5011841;28;19955;-72
2023/08/26 02:51:00;;;;;;;;;;;;;;;13.33;100.00;100915.06;5005503;28;20186;-70
2023/08/26 02:53:25;;;;;;;;;;;;;;;13.30;100.00;100919.88;4990993;28;19925;-71
2023/08/26 02:55:51;;;;;;;;;;;;;;;13.25;100.00;100922.13;4975528;28;19928;-69
2023/08/26 02:58:16;;;;;;;;;;;;;;;13.20;100.00;100922.53;5007121;28;20348;-72
2023/08/26 03:00:42;;;;;;;;;;;;;;;13.15;100.00;100927.47;4988537;28;20030;-73
2023/08/26 03:03:07;;;;;;;;;;;;;;;13.12;100.00;100933.97;5009043;28;20003;-72
2023/08/26 03:05:32;;;;;;;;;;;;;;;13.23;100.00;100932.19;5007266;28;20112;-75
2023/08/26 03:07:57;;;;;;;;;;;;;;;13.00;100.00;100922.41;5011309;28;19917;-73
2023/08/26 03:10:22;;;;;;;;;;;;;;;13.12;100.00;100933.13;5009012;28;19923;-72
2023/08/26 03:12:48;;;;;;;;;;;;;;;13.05;100.00;100939.06;5005690;28;19948;-74
2023/08/26 03:15:13;;;;;;;;;;;;;;;13.08;100.00;100934.38;5004781;28;20452;-72
2023/08/26 03:17:38;;;;;;;;;;;;;;;13.05;100.00;100944.44;4988683;28;20379;-73
2023/08/26 03:20:05;;;;;;;;;;;;;;;13.03;100.00;100942.88;5005509;28;19951;-71
2023/08/26 03:22:30;;;;;;;;;;;;;;;12.99;100.00;100944.97;4986376;28;19932;-69
2023/08/26 03:24:55;;;;;;;;;;;;;;;12.93;100.00;100939.25;5006052;28;19916;-74
2023/08/26 03:27:20;;;;;;;;;;;;;;;12.89;100.00;100950.31;5007940;28;19921;-72
2023/08/26 03:29:46;;;;;;;;;;;;;;;12.86;100.00;100947.03;5005440;28;19925;-71
2023/08/26 03:32:11;;;;;;;;;;;;;;;12.86;100.00;100947.03;5007291;28;19928;-73
2023/08/26 03:34:37;;;;;;;;;;;;;;;12.83;100.00;100945.47;5007863;28;20446;-72
2023/08/26 03:37:03;;;;;;;;;;;;;;;12.78;100.00;100942.31;5004307;28;20727;-72
2023/08/26 03:39:28;;;;;;;;;;;;;;;12.84;100.00;100943.59;5011769;28;19975;-72
2023/08/26 03:41:53;;;;;;;;;;;;;;;12.89;100.00;100942.22;5015647;28;19920;-72
2023/08/26 03:44:18;;;;;;;;;;;;;;;12.79;100.00;100944.00;5011270;28;19920;-73
2023/08/26 03:46:44;;;;;;;;;;;;;;;12.77;100.00;100947.81;4991927;28;19928;-73
2023/08/26 03:49:09;;;;;;;;;;;;;;;12.82;100.00;100948.28;5011455;28;19921;-73
2023/08/26 03:51:34;;;;;;;;;;;;;;;12.70;100.00;100955.56;5009044;28;19917;-72
2023/08/26 03:53:59;;;;;;;;;;;;;;;12.79;100.00;100953.91;5011808;28;19928;-72
2023/08/26 03:56:25;;;;;;;;;;;;;;;12.73;100.00;100949.91;4988153;28;20515;-73
2023/08/26 03:58:56;;;;;;;;;;;;;;;12.76;100.00;100946.97;5009188;28;19921;-73
2023/08/26 04:01:21;;;;;;;;;;;;;;;12.67;100.00;100953.13;4988817;28;19921;-73
2023/08/26 04:03:49;;;;;;;;;;;;;;;12.70;100.00;100953.75;5005798;28;20326;-72
2023/08/26 04:06:15;;;;;;;;;;;;;;;12.63;100.00;100951.69;5008460;28;19925;-72
2023/08/26 04:08:41;;;;;;;;;;;;;;;12.58;100.00;100950.22;5005114;28;21266;-71
2023/08/26 04:11:06;;;;;;;;;;;;;;;12.56;100.00;100960.31;4989411;28;20124;-73
2023/08/26 04:13:31;;;;;;;;;;;;;;;12.52;100.00;100956.16;5010952;28;20118;-72
2023/08/26 04:15:57;;;;;;;;;;;;;;;12.44;100.00;100953.25;5007565;28;20008;-72
2023/08/26 04:18:22;;;;;;;;;;;;;;;12.41;100.00;100956.19;5004167;28;19925;-71
2023/08/26 04:20:48;;;;;;;;;;;;;;;12.45;100.00;100966.56;4995043;28;19917;-73
2023/08/26 04:23:13;;;;;;;;;;;;;;;12.48;100.00;100962.78;4987173;28;19925;-73
2023/08/26 04:25:39;;;;;;;;;;;;;;;12.43;100.00;100967.69;4987149;28;19921;-72
2023/08/26 04:28:04;;;;;;;;;;;;;;;12.47;100.00;100969.16;5007039;28;19943;-74
2023/08/26 04:30:29;;;;;;;;;;;;;;;12.41;100.00;100970.53;5005674;28;19952;-74
2023/08/26 04:32:54;;;;;;;;;;;;;;;12.41;100.00;100973.22;5004251;28;19922;-73
2023/08/26 04:35:20;;;;;;;;;;;;;;;12.33;100.00;100977.50;5002829;28;20488;-74
2023/08/26 04:37:45;;;;;;;;;;;;;;;12.27;100.00;100974.38;5003596;28;19921;-73
2023/08/26 04:40:14;;;;;;;;;;;;;;;12.27;100.00;100981.56;4972508;28;20348;-72
2023/08/26 04:42:39;;;;;;;;;;;;;;;12.24;100.00;100980.00;4989251;28;19959;-72
2023/08/26 04:45:05;;;;;;;;;;;;;;;12.22;100.00;100983.78;4970159;28;20131;-72
2023/08/26 04:47:30;;;;;;;;;;;;;;;12.32;100.00;100984.75;5003079;28;20249;-72
2023/08/26 04:49:55;;;;;;;;;;;;;;;12.27;100.00;100984.25;4990621;28;20422;-72
2023/08/26 04:52:20;;;;;;;;;;;;;;;12.32;100.00;100990.13;4992961;28;19979;-72
2023/08/26 04:54:46;;;;;;;;;;;;;;;12.28;100.00;100991.34;4976208;28;20355;-72
2023/08/26 04:57:12;;;;;;;;;;;;;;;12.24;100.00;101001.53;4990886;28;20350;-73
2023/08/26 04:59:37;;;;;;;;;;;;;;;12.27;100.00;101005.81;4990938;28;19925;-74
2023/08/26 05:02:03;;;;;;;;;;;;;;;12.25;100.00;101007.75;4991553;28;19952;-71
2023/08/26 05:04:29;;;;;;;;;;;;;;;12.33;100.00;101015.19;4987658;28;19975;-73
2023/08/26 05:06:54;;;;;;;;;;;;;;;12.34;100.00;101015.09;4986738;28;20363;-71
2023/08/26 05:09:19;;;;;;;;;;;;;;;12.36;100.00;101021.19;4990869;28;19921;-76
2023/08/26 05:11:44;;;;;;;;;;;;;;;12.27;100.00;101022.81;4987383;28;19983;-73
2023/08/26 05:14:10;;;;;;;;;;;;;;;12.37;100.00;101020.22;4985371;28;19956;-74
2023/08/26 05:16:35;;;;;;;;;;;;;;;12.33;100.00;101028.66;4989693;28;20003;-73
2023/08/26 05:19:00;;;;;;;;;;;;;;;12.34;100.00;101022.28;5010248;28;20432;-72
2023/08/26 05:21:25;;;;;;;;;;;;;;;12.34;100.00;101022.28;5004792;28;19945;-73
2023/08/26 05:23:50;;;;;;;;;;;;;;;12.33;100.00;101024.16;4990229;28;19925;-73
2023/08/26 05:26:16;;;;;;;;;;;;;;;12.47;100.00;101024.81;5006369;28;19964;-73
2023/08/26 05:28:41;;;;;;;;;;;;;;;12.45;100.00;101033.03;4990156;28;20030;-71
2023/08/26 05:31:06;;;;;;;;;;;;;;;12.48;100.00;101037.31;5009998;28;19932;-72
2023/08/26 05:33:32;;;;;;;;;;;;;;;12.51;100.00;101040.63;4992326;28;20008;-73
2023/08/26 05:35:57;;;;;;;;;;;;;;;12.55;100.00;101034.00;4975092;28;20319;-71
2023/08/26 05:38:22;;;;;;;;;;;;;;;12.61;100.00;101035.31;5006112;28;20315;-72
2023/08/26 05:40:47;;;;;;;;;;;;;;;12.68;100.00;101030.25;4987021;28;20520;-73
2023/08/26 05:43:12;;;;;;;;;;;;;;;12.69;100.00;101037.38;5007170;28;20446;-75
2023/08/26 05:45:38;;;;;;;;;;;;;;;12.72;100.00;101032.56;4973997;28;20364;-72
2023/08/26 05:48:03;;;;;;;;;;;;;;;12.76;100.00;101033.19;5008491;28;19994;-72
2023/08/26 05:50:28;;;;;;;;;;;;;;;12.74;100.00;101006.34;5007740;28;19933;-72
2023/08/26 05:52:53;;;;;;;;;;;;;;;12.93;100.00;101020.09;5004989;28;20002;-72
2023/08/26 05:55:18;;;;;;;;;;;;;;;12.92;100.00;101016.56;5007939;28;20020;-74
2023/08/26 05:57:44;;;;;;;;;;;;;;;12.95;100.00;101026.22;4994452;28;19922;-72
2023/08/26 06:00:09;;;;;;;;;;;;;;;13.03;100.00;101018.34;4987679;28;19921;-71
2023/08/26 06:02:34;;;;;;;;;;;;;;;13.06;100.00;101015.41;5008146;28;19925;-75
2023/08/26 06:05:00;;;;;;;;;;;;;;;13.12;100.00;101017.53;4992082;28;20875;-73
2023/08/26 06:07:25;;;;;;;;;;;;;;;13.12;100.00;101014.84;4985818;28;20367;-71
2023/08/26 06:09:50;;;;;;;;;;;;;;;13.24;100.00;101012.97;4973504;28;19925;-73
2023/08/26 06:12:16;;;;;;;;;;;;;;;13.34;100.00;101019.25;5008296;28;20064;-72
2023/08/26 06:14:41;;;;;;;;;;;;;;;13.33;100.00;101014.00;4986858;28;20629;-71
2023/08/26 06:17:06;;;;;;;;;;;;;;;13.46;100.00;101019.22;5009171;28;19943;-70
2023/08/26 06:19:32;;;;;;;;;;;;;;;13.56;100.00;101013.84;5010243;28;19924;-71
2023/08/26 06:21:57;;;;;;;;;;;;;;;13.61;100.00;101017.00;4995855;28;19921;-71
2023/08/26 06:24:22;;;;;;;;;;;;;;;13.74;100.00;101006.81;4995869;28;19983;-71
2023/08/26 06:26:47;;;;;;;;;;;;;;;13.69;100.00;101003.69;5012575;28;20390;-70
2023/08/26 06:29:15;;;;;;;;;;;;;;;13.73;100.00;101013.22;4976834;28;20449;-76
2023/08/26 06:31:41;;;;;;;;;;;;;;;13.89;100.00;101006.47;4988672;28;19921;-72
2023/08/26 06:34:07;;;;;;;;;;;;;;;14.00;100.00;101006.34;4996232;28;19917;-73
2023/08/26 06:36:32;;;;;;;;;;;;;;;14.08;100.00;101003.81;5006949;28;20636;-71
2023/08/26 06:38:57;;;;;;;;;;;;;;;14.06;100.00;101008.50;4991367;28;20369;-70
2023/08/26 06:41:22;;;;;;;;;;;;;;;14.17;100.00;101007.53;4993363;28;20393;-73
2023/08/26 06:43:48;;;;;;;;;;;;;;;14.29;100.00;101007.41;4994196;28;19952;-69
2023/08/26 06:46:13;;;;;;;;;;;;;;;14.30;100.00;101007.25;4996343;28;20019;-71
2023/08/26 06:48:39;;;;;;;;;;;;;;;14.39;100.00;101008.25;4977523;28;19927;-71
2023/08/26 06:51:04;;;;;;;;;;;;;;;14.50;100.00;101015.38;5008207;28;20222;-71
2023/08/26 06:53:29;;;;;;;;;;;;;;;14.65;100.00;101026.63;5005353;28;20329;-74
2023/08/26 06:55:54;;;;;;;;;;;;;;;14.74;100.00;101012.31;5009452;28;20372;-72
2023/08/26 06:58:20;;;;;;;;;;;;;;;14.74;100.00;101015.00;5009680;28;20418;-72
2023/08/26 07:00:45;;;;;;;;;;;;;;;14.75;100.00;101007.72;4990113;28;19968;-71
2023/08/26 07:03:10;;;;;;;;;;;;;;;14.77;100.00;101009.31;5009295;28;20150;-74
2023/08/26 07:05:41;;;;;;;;;;;;;;;14.78;100.00;101011.03;4993740;28;20031;-72
2023/08/26 07:08:07;;;;;;;;;;;;;;;14.87;100.00;101009.31;4994233;28;19944;-72
2023/08/26 07:10:32;;;;;;;;;;;;;;;14.91;100.00;101001.75;4990358;28;19972;-73
2023/08/26 07:12:57;;;;;;;;;;;;;;;14.96;100.00;101010.28;4975109;28;20295;-69
2023/08/26 07:15:23;;;;;;;;;;;;;;;15.08;100.00;101006.44;5010178;28;19931;-72
2023/08/26 07:17:48;;;;;;;;;;;;;;;15.17;100.00;101003.84;4992527;28;19960;-71
2023/08/26 07:20:13;;;;;;;;;;;;;;;15.24;100.00;101004.97;5005659;28;20324;-69
2023/08/26 07:22:38;;;;;;;;;;;;;;;15.27;100.00;101005.53;5008036;28;20362;-71
2023/08/26 07:25:04;;;;;;;;;;;;;;;15.27;100.00;101005.53;5012810;28;20350;-70
2023/08/26 07:27:31;;;;;;;;;;;;;;;15.38;100.00;101000.94;4994378;28;20129;-70
2023/08/26 07:29:57;;;;;;;;;;;;;;;15.53;100.00;101004.88;5009166;28;20953;-71
2023/08/26 07:32:22;;;;;;;;;;;;;;;15.57;100.00;101002.75;5010064;28;20051;-71
2023/08/26 07:34:49;;;;;;;;;;;;;;;15.70;100.00;100987.00;4991311;28;19960;-71
2023/08/26 07:37:15;;;;;;;;;;;;;;;15.81;100.00;100990.53;5005262;28;19921;-70
2023/08/26 07:39:40;;;;;;;;;;;;;;;16.03;100.00;101000.97;5005944;28;19929;-72
2023/08/26 07:42:05;;;;;;;;;;;;;;;16.08;100.00;101002.38;5010763;28;19944;-72
2023/08/26 07:44:30;;;;;;;;;;;;;;;16.14;100.00;101008.03;4977747;28;19924;-73
2023/08/26 07:46:56;;;;;;;;;;;;;;;16.14;100.00;101012.63;5013144;28;19929;-71
2023/08/26 07:49:22;;;;;;;;;;;;;;;16.12;100.00;101011.91;4992684;28;19928;-71
2023/08/26 07:51:47;;;;;;;;;;;;;;;16.22;100.00;101019.97;5008580;28;20012;-71
2023/08/26 07:54:12;;;;;;;;;;;;;;;16.38;100.00;101020.13;5007140;28;20038;-72
2023/08/26 07:56:37;;;;;;;;;;;;;;;16.43;100.00;101020.53;5010987;28;20003;-71
2023/08/26 07:59:02;;;;;;;;;;;;;;;16.36;100.00;101022.16;5010138;28;19925;-72
2023/08/26 08:01:28;;;;;;;;;;;;;;;16.60;100.00;101023.41;5008732;28;20064;-72
2023/08/26 08:03:53;;;;;;;;;;;;;;;16.81;100.00;101020.38;4994621;28;19925;-72
2023/08/26 08:06:18;;;;;;;;;;;;;;;16.80;100.00;101024.09;4974966;28;20144;-70
2023/08/26 08:08:43;;;;;;;;;;;;;;;16.77;100.00;101018.97;4989292;28;19925;-70
2023/08/26 08:11:09;;;;;;;;;;;;;;;16.83;100.00;101021.06;4973935;28;20562;-71
2023/08/26 08:13:34;;;;;;;;;;;;;;;16.91;100.00;101013.00;4991820;28;20326;-71
2023/08/26 08:15:59;;;;;;;;;;;;;;;17.13;100.00;101023.53;5009951;28;19925;-71
2023/08/26 08:18:24;;;;;;;;;;;;;;;17.35;100.00;101017.56;5006114;28;19956;-70
2023/08/26 08:20:49;;;;;;;;;;;;;;;17.44;100.00;101021.22;4988852;28;20031;-73
2023/08/26 08:23:15;;;;;;;;;;;;;;;17.60;100.00;101022.31;5008919;28;20019;-70
2023/08/26 08:25:40;;;;;;;;;;;;;;;17.54;100.00;101030.06;4990763;28;21271;-71
2023/08/26 08:28:05;;;;;;;;;;;;;;;17.39;100.00;101021.69;5005967;28;19925;-69
2023/08/26 08:30:30;;;;;;;;;;;;;;;17.56;100.00;101013.66;5009096;28;19925;-70
2023/08/26 08:32:56;;;;;;;;;;;;;;;17.69;100.00;101016.75;5009375;28;20028;-74
2023/08/26 08:35:21;;;;;;;;;;;;;;;17.56;100.00;101020.94;5009507;28;19929;-69
2023/08/26 08:37:46;;;;;;;;;;;;;;;17.68;100.00;101015.06;4970688;28;19925;-70
2023/08/26 08:40:11;;;;;;;;;;;;;;;17.92;100.00;101018.88;4972362;28;20344;-70
2023/08/26 08:42:36;;;;;;;;;;;;;;;17.81;100.00;101014.59;4990803;28;20280;-71
2023/08/26 08:45:03;;;;;;;;;;;;;;;18.06;100.00;101022.03;5009472;28;20017;-73
2023/08/26 08:47:29;;;;;;;;;;;;;;;17.94;100.00;101016.88;5010450;28;19927;-71
2023/08/26 08:49:54;;;;;;;;;;;;;;;18.07;100.00;101018.31;5009055;28;19925;-71
2023/08/26 08:52:19;;;;;;;;;;;;;;;17.77;100.00;101018.66;4980042;28;20422;-72
2023/08/26 08:54:45;;;;;;;;;;;;;;;17.87;100.00;101021.28;5013602;28;20351;-71
2023/08/26 08:57:12;;;;;;;;;;;;;;;17.78;100.00;101014.09;4994051;28;20512;-73
2023/08/26 08:59:37;;;;;;;;;;;;;;;17.64;100.00;101013.66;4996212;28;19936;-73
2023/08/26 09:02:03;;;;;;;;;;;;;;;17.95;100.00;101013.13;5011280;28;20356;-72
2023/08/26 09:04:29;;;;;;;;;;;;;;;17.71;100.00;101022.03;5010706;28;20431;-72
2023/08/26 09:06:54;;;;;;;;;;;;;;;17.86;100.00;101019.56;4992381;28;20024;-76
2023/08/26 09:09:20;;;;;;;;;;;;;;;17.66;100.00;101018.94;4993322;28;19947;-72
2023/08/26 09:11:45;;;;;;;;;;;;;;;17.72;100.00;101022.88;4975688;28;19921;-72
2023/08/26 09:14:11;;;;;;;;;;;;;;;17.65;100.00;101028.94;5003028;28;19928;-72
2023/08/26 09:16:36;;;;;;;;;;;;;;;17.87;100.00;101029.41;5013760;28;20259;-74
2023/08/26 09:19:03;;;;;;;;;;;;;;;18.31;100.00;101030.25;4994652;28;19925;-70
2023/08/26 09:21:28;;;;;;;;;;;;;;;18.41;100.00;101025.50;4978429;28;20333;-72
2023/08/26 09:23:53;;;;;;;;;;;;;;;18.65;100.00;101026.59;4992041;28;19963;-69
2023/08/26 09:26:19;;;;;;;;;;;;;;;18.77;100.00;101027.94;5006545;28;20368;-71
2023/08/26 09:28:48;;;;;;;;;;;;;;;18.82;100.00;101027.44;5010575;28;20394;-70
2023/08/26 09:31:13;;;;;;;;;;;;;;;18.83;100.00;101024.56;4991359;28;19921;-72
2023/08/26 09:33:38;;;;;;;;;;;;;;;19.12;100.00;101031.38;4985017;28;20477;-72
2023/08/26 09:36:04;;;;;;;;;;;;;;;19.49;100.00;101026.41;4997398;28;19921;-74
2023/08/26 09:38:39;;;;;;;;;;;;;;;19.40;100.00;101030.16;4982304;28;19925;-72
2023/08/26 09:41:04;;;;;;;;;;;;;;;19.45;100.00;101009.56;5000468;28;19929;-72
2023/08/26 09:43:29;;;;;;;;;;;;;;;19.62;100.00;101026.69;5000761;28;20368;-72
2023/08/26 09:45:56;;;;;;;;;;;;;;;19.03;100.00;101037.84;4996436;28;20336;-70
2023/08/26 09:48:21;;;;;;;;;;;;;;;19.12;100.00;101039.56;4997211;28;20609;-73
2023/08/26 09:50:47;;;;;;;;;;;;;;;19.07;100.00;101028.31;4979259;28;19921;-72
2023/08/26 09:53:12;;;;;;;;;;;;;;;18.79;100.00;101028.63;5010357;28;20522;-69
2023/08/26 09:55:38;;;;;;;;;;;;;;;18.73;100.00;101026.59;5012526;28;20330;-72
2023/08/26 09:58:04;;;;;;;;;;;;;;;19.41;100.00;101031.84;4982773;28;19921;-72
2023/08/26 10:00:29;;;;;;;;;;;;;;;19.54;100.00;101039.47;4988915;28;19928;-71
2023/08/26 10:02:55;;;;;;;;;;;;;;;19.68;100.00;101033.31;4981863;28;19990;-71
2023/08/26 10:05:21;;;;;;;;;;;;;;;19.37;100.00;101038.66;5010259;28;19987;-72
2023/08/26 10:07:47;;;;;;;;;;;;;;;19.33;100.00;101046.34;4994804;28;19925;-71
2023/08/26 10:10:24;;;;;;;;;;;;;;;19.12;100.00;101044.13;5011678;28;20353;-73
2023/08/26 10:12:50;;;;;;;;;;;;;;;18.99;100.00;101037.34;5010533;28;19956;-74
2023/08/26 10:15:17;;;;;;;;;;;;;;;19.59;100.00;101037.09;4981311;28;19928;-74
2023/08/26 10:17:43;;;;;;;;;;;;;;;20.03;100.00;101042.06;4981471;28;19944;-72
2023/08/26 10:20:09;;;;;;;;;;;;;;;20.33;100.00;101038.69;4998561;28;20486;-72
2023/08/26 10:22:34;;;;;;;;;;;;;;;20.44;100.00;101037.44;4992602;28;19925;-75
2023/08/26 10:24:59;;;;;;;;;;;;;;;20.38;100.00;101031.66;4983199;28;20014;-75
2023/08/26 10:27:25;;;;;;;;;;;;;;;19.82;100.00;101039.91;4992534;28;19975;-74
2023/08/26 10:29:50;;;;;;;;;;;;;;;19.85;100.00;101027.81;4997278;28;20039;-74
2023/08/26 10:32:17;;;;;;;;;;;;;;;20.30;100.00;101034.44;4993545;28;19925;-74
2023/08/26 10:34:51;;;;;;;;;;;;;;;20.50;100.00;101032.09;5013721;28;19980;-73
2023/08/26 10:37:16;;;;;;;;;;;;;;;21.00;100.00;101029.03;4973519;28;20142;-77
2023/08/26 10:39:42;;;;;;;;;;;;;;;20.97;100.00;101027.53;4991497;28;20323;-74
2023/08/26 10:42:16;;;;;;;;;;;;;;;20.52;100.00;101029.22;5011191;28;20329;-72
2023/08/26 10:44:42;;;;;;;;;;;;;;;20.82;100.00;101032.06;5006349;28;19977;-74
2023/08/26 10:47:08;;;;;;;;;;;;;;;21.41;100.00;101035.97;5002274;28;19920;-72
2023/08/26 10:49:33;;;;;;;;;;;;;;;21.63;89.06;101045.16;5087363;23;20772;-77
2023/08/26 10:52:17;;;;;;;;;;;;;;;21.84;87.11;101036.22;5024478;28;19924;-78
2023/08/26 10:54:46;;;;;;;;;;;;;;;20.83;96.96;101031.91;5035409;28;20068;-79
2023/08/26 10:57:11;;;;;;;;;;;;;;;21.17;93.52;101028.88;4990808;28;19920;-74
2023/08/26 10:59:40;;;;;;;;;;;;;;;21.63;93.40;101020.56;5039958;28;19924;-76
2023/08/26 11:02:05;;;;;;;;;;;;;;;21.54;89.30;101021.66;5032251;28;19925;-76
2023/08/26 11:04:31;;;;;;;;;;;;;;;22.52;84.98;101017.88;5030100;28;20318;-76
2023/08/26 11:06:57;;;;;;;;;;;;;;;23.11;88.59;101016.75;5030053;28;19928;-76
2023/08/26 11:09:22;;;;;;;;;;;;;;;23.51;76.61;101019.81;5012069;28;20008;-76
2023/08/26 11:11:47;;;;;;;;;;;;;;;23.94;74.64;101007.81;5031771;28;20038;-77
2023/08/26 11:14:12;;;;;;;;;;;;;;;23.61;72.98;101013.09;5028090;28;19929;-75
2023/08/26 11:16:37;;;;;;;;;;;;;;;22.38;74.21;101009.50;5027755;28;19916;-76
2023/08/26 11:19:03;;;;;;;;;;;;;;;21.95;81.36;101003.97;5015621;28;19921;-74
2023/08/26 11:21:28;;;;;;;;;;;;;;;22.08;79.15;101015.06;5025396;28;19951;-75
2023/08/26 11:23:54;;;;;;;;;;;;;;;21.99;76.37;101005.28;5033021;28;19921;-75
2023/08/26 11:26:20;;;;;;;;;;;;;;;22.18;92.23;101003.81;5030198;28;19990;-77
2023/08/26 11:28:46;;;;;;;;;;;;;;;23.32;74.16;101004.91;5032926;28;19925;-75
2023/08/26 11:31:11;;;;;;;;;;;;;;;23.46;65.48;101010.47;5027867;28;20020;-73
2023/08/26 11:33:36;;;;;;;;;;;;;;;23.46;72.37;101007.72;5024827;28;19935;-72
2023/08/26 11:36:02;;;;;;;;;;;;;;;23.81;64.04;101007.72;5029076;28;19920;-73
2023/08/26 11:38:31;;;;;;;;;;;;;;;23.31;70.52;101005.97;5025123;28;19921;-74
2023/08/26 11:40:57;;;;;;;;;;;;;;;22.57;75.48;101005.31;5012950;28;19958;-72
2023/08/26 11:43:23;;;;;;;;;;;;;;;22.39;75.77;100999.41;5027751;28;19921;-75
2023/08/26 11:45:50;;;;;;;;;;;;;;;21.13;91.25;101003.81;5031522;28;19928;-74
2023/08/26 11:48:15;;;;;;;;;;;;;;;21.23;85.41;100998.97;5010322;28;19920;-74
2023/08/26 11:50:41;;;;;;;;;;;;;;;21.91;87.21;101003.50;5030955;28;20367;-75
2023/08/26 11:53:06;;;;;;;;;;;;;;;22.43;76.58;100998.84;5030905;28;19920;-74
2023/08/26 11:55:32;;;;;;;;;;;;;;;21.61;84.87;100997.16;5028718;28;20248;-72
2023/08/26 11:57:57;;;;;;;;;;;;;;;22.12;82.34;101007.31;5030506;28;19920;-76
2023/08/26 12:00:23;;;;;;;;;;;;;;;22.57;84.28;101012.69;5012749;28;20470;-70
2023/08/26 12:02:52;;;;;;;;;;;;;;;23.33;74.35;101012.09;5032950;28;20428;-72
2023/08/26 12:05:18;;;;;;;;;;;;;;;24.17;69.56;101003.91;5032101;28;19917;-73
2023/08/26 12:07:46;;;;;;;;;;;;;;;24.41;61.94;100996.97;5026378;28;21327;-73
2023/08/26 12:10:12;;;;;;;;;;;;;;;24.76;69.85;100986.94;5018469;28;20031;-72
2023/08/26 12:12:38;;;;;;;;;;;;;;;23.73;69.26;101003.25;5031480;28;19920;-74
2023/08/26 12:15:10;;;;;;;;;;;;;;;23.55;75.62;101000.22;5027499;28;20132;-75
2023/08/26 12:17:50;;;;;;;;;;;;;;;24.68;63.84;100991.53;5026077;28;20577;-73
2023/08/26 12:20:29;;;;;;;;;;;;;;;24.91;59.78;100994.97;5024532;28;19929;-75